Time;durP1;ratioP1;P1;durP2;ratioP2;P2;SDS_P1;SDS_P2;PMS_P1;PMS_P2;Temp;Humidity;BMP_temperature;BMP_pressure;BME280_temperature;BME280_humidity;BME280_pressure;Samples;Min_cycle;Max_cycle;Signal;HPM_P1;HPM_P2
2022/12/15 00:40:18;;;;;;;43.97;25.65;;;-2.20;83.70;;;;;;5075098;28;20294;-66
2022/12/15 00:42:43;;;;;;;43.13;26.70;;;-2.20;83.30;;;;;;5073992;28;20065;-66
2022/12/15 00:45:09;;;;;;;45.40;27.23;;;-2.20;83.60;;;;;;5076838;28;20040;-67
2022/12/15 00:47:35;;;;;;;42.63;26.23;;;-2.20;83.60;;;;;;5081724;28;20320;-67
2022/12/15 01:20:13;;;;;;;40.30;24.92;;;-2.00;84.20;;;;;;5079545;28;20056;-66
2022/12/15 01:22:40;;;;;;;44.97;28.20;;;-2.00;84.40;;;;;;5080322;28;20063;-66
2022/12/15 01:25:07;;;;;;;44.65;27.40;;;-2.00;84.80;;;;;;5076170;28;20083;-67
2022/12/15 01:27:33;;;;;;;41.67;25.92;;;-2.00;84.70;;;;;;5078759;28;20143;-66
2022/12/15 01:29:59;;;;;;;53.33;30.60;;;-2.00;84.80;;;;;;5078574;28;20154;-67
2022/12/15 01:32:24;;;;;;;46.13;27.17;;;-2.00;84.90;;;;;;5080389;28;20056;-66
2022/12/15 01:34:50;;;;;;;53.42;31.60;;;-2.00;84.40;;;;;;5079546;28;20025;-67
2022/12/15 01:37:16;;;;;;;62.35;34.13;;;-2.00;84.90;;;;;;5077637;28;20886;-66
2022/12/15 01:42:26;;;;;;;;;;;-2.10;85.00;;;;;;5077028;28;20218;-66
2022/12/15 01:44:52;;;;;;;52.35;28.73;;;-2.20;83.90;;;;;;5077428;28;19995;-66
2022/12/15 01:47:22;;;;;;;52.03;29.60;;;-2.10;83.20;;;;;;5073865;28;20108;-67
2022/12/15 01:49:48;;;;;;;50.67;29.13;;;-2.10;83.40;;;;;;5081360;28;20062;-67
2022/12/15 01:52:15;;;;;;;54.05;30.77;;;-2.00;83.50;;;;;;5076176;28;20106;-67
2022/12/15 01:54:42;;;;;;;50.05;29.08;;;-2.10;84.10;;;;;;5060556;28;20102;-67
2022/12/15 01:57:13;;;;;;;51.30;31.20;;;-2.00;83.80;;;;;;5069767;28;20428;-68
2022/12/15 01:59:47;;;;;;;51.72;30.55;;;-2.10;83.60;;;;;;5076423;28;20031;-67
2022/12/15 02:02:14;;;;;;;46.00;27.05;;;-2.10;84.50;;;;;;5055960;28;20020;-67
2022/12/15 02:04:40;;;;;;;53.17;30.75;;;-2.10;82.50;;;;;;5077555;28;20375;-67
2022/12/15 02:07:11;;;;;;;49.58;29.88;;;-2.00;83.10;;;;;;5073601;28;20032;-67
2022/12/15 02:09:37;;;;;;;59.20;31.52;;;-2.00;84.50;;;;;;5065824;28;20021;-67
2022/12/15 02:12:31;;;;;;;57.47;31.52;;;-2.00;84.10;;;;;;5073967;28;20375;-67
2022/12/15 02:15:23;;;;;;;59.72;32.05;;;-2.10;84.00;;;;;;5074506;28;20443;-67
2022/12/15 02:18:23;;;;;;;68.75;34.30;;;-2.10;84.90;;;;;;5066852;28;20032;-67
2022/12/15 02:21:08;;;;;;;68.55;34.72;;;-2.10;84.70;;;;;;5071546;28;20112;-67
2022/12/15 02:24:11;;;;;;;71.95;38.55;;;-2.10;84.10;;;;;;5058581;28;20352;-67
2022/12/15 02:26:59;;;;;;;64.88;34.88;;;-2.20;84.50;;;;;;5074783;28;20032;-67
2022/12/15 02:29:27;;;;;;;65.28;34.13;;;-2.20;83.60;;;;;;5072285;28;20055;-67
2022/12/15 02:32:20;;;;;;;62.20;32.88;;;-2.20;82.60;;;;;;5043304;28;20027;-67
2022/12/15 02:34:49;;;;;;;58.28;32.10;;;-2.20;82.80;;;;;;5058001;28;20024;-67
2022/12/15 02:37:37;;;;;;;53.65;29.60;;;-2.20;81.60;;;;;;5050890;28;20025;-67
2022/12/15 02:40:05;;;;;;;52.13;30.45;;;-2.20;82.00;;;;;;5075686;28;20033;-67
2022/12/15 02:42:35;;;;;;;46.65;27.85;;;-2.20;81.20;;;;;;5073845;28;20082;-67
2022/12/15 02:45:14;;;;;;;49.25;28.88;;;-2.20;81.20;;;;;;5068710;28;20032;-66
2022/12/15 02:47:53;;;;;;;62.40;33.33;;;-2.20;81.90;;;;;;5056202;28;20078;-67
2022/12/15 02:50:28;;;;;;;52.72;30.52;;;-2.20;82.70;;;;;;5073953;28;20070;-67
2022/12/15 02:53:06;;;;;;;55.92;32.38;;;-2.30;82.20;;;;;;5074270;28;20029;-67
2022/12/15 02:56:01;;;;;;;66.20;35.95;;;-2.30;82.30;;;;;;5072621;28;20349;-66
2022/12/15 02:59:09;;;;;;;61.28;34.13;;;-2.40;82.40;;;;;;5072113;28;20020;-67
2022/12/15 03:01:55;;;;;;;68.50;35.40;;;-2.30;81.80;;;;;;4974958;28;20030;-66
2022/12/15 03:04:24;;;;;;;76.18;39.03;;;-2.30;82.40;;;;;;5064988;28;20041;-68
2022/12/15 03:06:55;;;;;;;71.40;36.85;;;-2.40;82.20;;;;;;5074620;28;20024;-67
2022/12/15 03:09:21;;;;;;;73.95;38.85;;;-2.40;82.30;;;;;;5073958;28;20024;-68
2022/12/15 03:11:46;;;;;;;59.30;33.80;;;-2.50;81.60;;;;;;5074236;28;20078;-67
2022/12/15 03:14:12;;;;;;;63.53;35.47;;;-2.40;80.90;;;;;;5074053;28;20450;-67
2022/12/15 03:16:37;;;;;;;64.50;34.15;;;-2.40;80.80;;;;;;5074061;28;20078;-67
2022/12/15 03:19:05;;;;;;;50.55;30.75;;;-2.40;79.80;;;;;;5072750;28;20474;-67
2022/12/15 03:21:31;;;;;;;67.30;35.47;;;-2.30;79.80;;;;;;5075689;28;20106;-67
2022/12/15 03:23:56;;;;;;;50.28;30.80;;;-2.30;79.50;;;;;;5074236;28;20028;-67
2022/12/15 03:26:22;;;;;;;78.85;38.80;;;-2.30;79.60;;;;;;5073893;28;20052;-67
2022/12/15 03:28:48;;;;;;;61.10;34.08;;;-2.30;79.70;;;;;;5072152;28;20036;-67
2022/12/15 03:31:13;;;;;;;61.20;34.05;;;-2.30;80.00;;;;;;5056156;28;20021;-67
2022/12/15 03:33:39;;;;;;;63.00;36.75;;;-2.40;79.40;;;;;;5073024;28;20109;-67
2022/12/15 03:36:05;;;;;;;54.88;31.60;;;-2.40;79.40;;;;;;5075527;28;20035;-67
2022/12/15 03:38:31;;;;;;;88.22;42.67;;;-2.40;79.30;;;;;;5056204;28;20028;-67
2022/12/15 03:40:56;;;;;;;59.10;33.35;;;-2.40;79.50;;;;;;5073291;28;20032;-67
2022/12/15 03:43:22;;;;;;;75.20;39.63;;;-2.30;78.10;;;;;;5073360;28;20056;-67
2022/12/15 03:45:50;;;;;;;68.35;36.83;;;-2.30;78.50;;;;;;5070751;28;20035;-67
2022/12/15 03:48:16;;;;;;;59.50;35.90;;;-2.30;79.50;;;;;;5073904;28;20078;-67
2022/12/15 03:50:43;;;;;;;59.75;34.63;;;-2.30;79.10;;;;;;5073876;28;20020;-66
2022/12/15 03:53:11;;;;;;;71.35;38.75;;;-2.30;79.70;;;;;;5074536;28;20023;-67
2022/12/15 03:55:40;;;;;;;64.35;36.35;;;-2.30;79.90;;;;;;5073525;28;20039;-67
2022/12/15 03:58:05;;;;;;;68.65;36.53;;;-2.40;79.70;;;;;;5046903;28;20032;-67
2022/12/15 04:00:31;;;;;;;66.75;37.60;;;-2.40;79.80;;;;;;5072080;28;20028;-67
2022/12/15 04:02:57;;;;;;;68.45;38.15;;;-2.40;79.60;;;;;;5063319;28;20123;-67
2022/12/15 04:05:28;;;;;;;74.95;40.28;;;-2.40;80.20;;;;;;5074247;28;20099;-67
2022/12/15 04:07:56;;;;;;;68.50;38.88;;;-2.40;80.00;;;;;;5073086;28;20101;-67
2022/12/15 04:10:23;;;;;;;79.97;41.92;;;-2.40;80.60;;;;;;5072802;28;20108;-67
2022/12/15 04:12:55;;;;;;;84.05;44.90;;;-2.40;80.40;;;;;;5073728;28;20312;-67
2022/12/15 04:15:24;;;;;;;81.10;42.05;;;-2.40;80.00;;;;;;5063607;28;20369;-67
2022/12/15 04:17:49;;;;;;;79.03;40.92;;;-2.40;81.10;;;;;;5072882;28;20361;-67
2022/12/15 04:20:15;;;;;;;84.00;42.20;;;-2.50;80.80;;;;;;5072360;28;20020;-67
2022/12/15 04:22:43;;;;;;;82.55;42.95;;;-2.40;80.40;;;;;;5072485;28;20036;-67
2022/12/15 05:33:53;;;;;;;;;;;-2.20;85.30;;;;;;5073877;28;20082;-67
2022/12/15 05:36:19;;;;;;;58.92;35.83;;;-2.30;86.00;;;;;;5077875;28;19912;-68
2022/12/15 05:38:50;;;;;;;65.28;38.22;;;-2.20;84.90;;;;;;5071359;28;20413;-68
2022/12/15 05:41:18;;;;;;;59.20;38.97;;;-2.20;84.90;;;;;;5076010;28;20421;-67
2022/12/15 05:43:44;;;;;;;75.45;41.42;;;-2.20;85.80;;;;;;5074642;28;20048;-67
2022/12/15 05:46:10;;;;;;;70.82;43.67;;;-2.20;86.70;;;;;;5075193;28;20034;-67
2022/12/15 05:48:35;;;;;;;77.85;42.08;;;-2.30;85.30;;;;;;5075467;28;20024;-67
2022/12/15 05:51:06;;;;;;;74.85;40.63;;;-2.20;85.30;;;;;;5077114;28;20025;-67
2022/12/15 05:53:31;;;;;;;86.78;44.88;;;-2.30;85.00;;;;;;5060680;28;20031;-66
2022/12/15 05:56:05;;;;;;;78.45;43.33;;;-2.20;84.50;;;;;;5055435;28;20024;-67
2022/12/15 05:58:33;;;;;;;86.97;46.38;;;-2.30;86.60;;;;;;5068989;28;20024;-69
2022/12/15 06:01:03;;;;;;;67.50;39.08;;;-2.30;86.00;;;;;;5061935;28;20059;-69
2022/12/15 06:03:30;;;;;;;66.10;41.92;;;-2.30;84.90;;;;;;5074187;28;20025;-68
2022/12/15 06:05:56;;;;;;;66.57;37.92;;;-2.20;83.90;;;;;;5074764;28;20383;-67
2022/12/15 06:08:22;;;;;;;63.85;37.88;;;-2.30;86.40;;;;;;5072022;28;20021;-68
2022/12/15 06:10:55;;;;;;;75.68;42.35;;;-2.30;85.60;;;;;;5074338;28;20440;-68
2022/12/15 06:13:22;;;;;;;91.45;46.80;;;-2.30;85.60;;;;;;5070557;28;20025;-67
2022/12/15 06:16:18;;;;;;;63.60;37.90;;;-2.30;86.40;;;;;;5075667;28;20366;-68
2022/12/15 06:18:47;;;;;;;58.88;35.38;;;-2.40;85.70;;;;;;5047475;28;20028;-67
2022/12/15 06:21:18;;;;;;;60.45;36.92;;;-2.40;84.50;;;;;;5074770;28;20023;-67
2022/12/15 06:23:46;;;;;;;71.43;40.58;;;-2.30;84.80;;;;;;5075102;28;20394;-68
2022/12/15 06:26:13;;;;;;;86.57;44.95;;;-2.30;85.20;;;;;;5056234;28;20368;-67
2022/12/15 06:28:39;;;;;;;69.65;39.15;;;-2.30;84.50;;;;;;5075007;28;20033;-67
2022/12/15 06:31:07;;;;;;;61.15;35.88;;;-2.40;85.80;;;;;;5056744;28;20045;-67
2022/12/15 06:33:33;;;;;;;75.78;39.88;;;-2.40;85.00;;;;;;5073394;28;20439;-67
2022/12/15 06:36:08;;;;;;;70.10;39.97;;;-2.30;84.20;;;;;;5071846;28;20021;-67
2022/12/15 06:38:35;;;;;;;70.55;40.33;;;-2.30;84.00;;;;;;5073888;28;20024;-67
2022/12/15 06:41:02;;;;;;;63.50;36.70;;;-2.20;84.40;;;;;;5064306;28;20314;-67
2022/12/15 06:43:29;;;;;;;88.22;45.28;;;-2.20;85.00;;;;;;5060968;28;20037;-67
2022/12/15 06:45:55;;;;;;;100.00;52.38;;;-2.20;86.00;;;;;;5068790;28;20025;-67
2022/12/15 06:48:22;;;;;;;114.82;58.78;;;-2.30;86.20;;;;;;5069444;28;20025;-67
2022/12/15 06:50:48;;;;;;;98.50;49.70;;;-2.30;86.10;;;;;;5073141;28;20017;-67
2022/12/15 06:53:18;;;;;;;83.18;46.85;;;-2.40;86.20;;;;;;5060259;28;20052;-67
2022/12/15 06:55:44;;;;;;;89.78;48.45;;;-2.40;85.30;;;;;;5067993;28;20020;-67
2022/12/15 06:58:12;;;;;;;120.15;55.10;;;-2.40;84.60;;;;;;5070418;28;20029;-67
2022/12/15 07:00:39;;;;;;;90.13;46.35;;;-2.50;85.10;;;;;;5075873;28;20017;-67
2022/12/15 07:03:18;;;;;;;83.03;44.83;;;-2.50;85.50;;;;;;5076268;28;20074;-67
2022/12/15 07:05:44;;;;;;;71.05;40.85;;;-2.40;84.30;;;;;;5069474;28;20024;-67
2022/12/15 07:08:15;;;;;;;72.18;41.25;;;-2.40;84.90;;;;;;5072398;28;20025;-66
2022/12/15 07:10:42;;;;;;;88.45;45.92;;;-2.40;84.40;;;;;;5072804;28;20098;-67
2022/12/15 07:13:11;;;;;;;75.05;41.65;;;-2.30;85.20;;;;;;5075173;28;20096;-66
2022/12/15 07:15:38;;;;;;;83.57;44.10;;;-2.30;85.20;;;;;;5076196;28;20402;-66
2022/12/15 07:18:04;;;;;;;94.88;48.88;;;-2.30;85.90;;;;;;5076012;28;20105;-66
2022/12/15 07:20:30;;;;;;;104.10;55.40;;;-2.30;85.60;;;;;;5075304;28;20016;-67
2022/12/15 07:22:56;;;;;;;102.10;52.63;;;-2.30;86.10;;;;;;5075872;28;20048;-67
2022/12/15 07:25:22;;;;;;;111.45;54.05;;;-2.50;85.70;;;;;;5076927;28;20106;-66
2022/12/15 07:27:47;;;;;;;108.60;53.90;;;-2.40;84.90;;;;;;5075808;28;20025;-67
2022/12/15 07:30:14;;;;;;;78.88;43.13;;;-2.50;85.70;;;;;;5056129;28;20028;-67
2022/12/15 07:32:43;;;;;;;86.95;44.25;;;-2.50;83.90;;;;;;5059057;28;20447;-67
2022/12/15 07:35:09;;;;;;;94.93;48.97;;;-2.40;84.20;;;;;;5076105;28;20032;-66
2022/12/15 07:37:34;;;;;;;104.32;51.80;;;-2.40;85.60;;;;;;5076450;28;20085;-66
2022/12/15 07:40:00;;;;;;;97.53;49.65;;;-2.40;85.60;;;;;;5073646;28;20025;-67
2022/12/15 07:42:29;;;;;;;73.43;42.08;;;-2.40;84.90;;;;;;5076374;28;20024;-67
2022/12/15 07:44:54;;;;;;;78.78;42.28;;;-2.30;84.10;;;;;;5073750;28;20383;-66
2022/12/15 07:47:20;;;;;;;81.93;44.20;;;-2.10;83.80;;;;;;5076598;28;20029;-67
2022/12/15 07:49:45;;;;;;;97.75;49.85;;;-2.00;85.50;;;;;;5073215;28;20040;-67
2022/12/15 07:52:12;;;;;;;99.55;51.17;;;-2.00;86.80;;;;;;5076249;28;20021;-67
2022/12/15 07:54:38;;;;;;;69.47;40.83;;;-2.10;87.50;;;;;;5075614;28;20479;-66
2022/12/15 07:57:06;;;;;;;90.28;47.08;;;-2.10;86.70;;;;;;5076273;28;20028;-67
2022/12/15 07:59:37;;;;;;;71.88;42.05;;;-2.10;88.10;;;;;;5072644;28;20115;-67
2022/12/15 08:02:03;;;;;;;68.78;40.33;;;-2.00;86.30;;;;;;5075215;28;20104;-67
2022/12/15 08:04:31;;;;;;;71.78;40.20;;;-1.90;87.40;;;;;;5058456;28;20119;-67
2022/12/15 08:06:57;;;;;;;91.72;45.70;;;-1.70;88.30;;;;;;5058950;28;20051;-67
2022/12/15 08:09:24;;;;;;;65.68;38.88;;;-1.70;90.40;;;;;;5073372;28;20073;-67
2022/12/15 08:11:49;;;;;;;73.18;41.60;;;-1.70;89.70;;;;;;5075273;28;20417;-67
2022/12/15 08:14:18;;;;;;;64.00;38.25;;;-1.70;91.10;;;;;;5074038;28;20035;-67
2022/12/15 08:16:44;;;;;;;68.47;39.65;;;-1.60;91.10;;;;;;5076068;28;20032;-66
2022/12/15 08:19:11;;;;;;;75.97;43.80;;;-1.50;92.50;;;;;;5073980;28;20029;-66
2022/12/15 08:21:39;;;;;;;90.95;48.85;;;-1.50;93.50;;;;;;5074970;28;20032;-67
2022/12/15 08:24:06;;;;;;;79.97;46.15;;;-1.40;92.90;;;;;;5074994;28;20028;-67
2022/12/15 08:26:32;;;;;;;75.70;43.28;;;-1.40;94.00;;;;;;5074156;28;20071;-67
2022/12/15 08:29:02;;;;;;;84.55;47.67;;;-1.40;94.00;;;;;;5073787;28;20048;-66
2022/12/15 08:31:30;;;;;;;90.38;49.15;;;-1.40;95.20;;;;;;5056777;28;20023;-67
2022/12/15 08:33:56;;;;;;;93.18;50.25;;;-1.50;94.80;;;;;;5075647;28;20027;-67
2022/12/15 08:36:22;;;;;;;92.47;47.90;;;-1.60;94.40;;;;;;5074933;28;20024;-67
2022/12/15 08:38:48;;;;;;;88.57;49.83;;;-1.60;93.70;;;;;;5075731;28;20020;-67
2022/12/15 08:41:21;;;;;;;83.53;46.45;;;-1.60;92.00;;;;;;5074705;28;20095;-66
2022/12/15 08:43:48;;;;;;;80.78;44.83;;;-1.40;92.80;;;;;;5072044;28;20044;-66
2022/12/15 08:46:16;;;;;;;81.35;47.28;;;-1.30;93.10;;;;;;5074629;28;20037;-66
2022/12/15 08:48:42;;;;;;;84.22;48.15;;;-1.10;93.60;;;;;;5056990;28;20075;-66
2022/12/15 08:51:08;;;;;;;68.90;41.92;;;-0.90;94.90;;;;;;5075714;28;20107;-66
2022/12/15 08:53:37;;;;;;;82.93;46.97;;;-0.70;94.70;;;;;;5074536;28;20075;-69
2022/12/15 08:56:11;;;;;;;74.72;43.80;;;-0.60;96.80;;;;;;5074701;28;20029;-68
2022/12/15 08:58:37;;;;;;;70.90;41.30;;;-0.60;97.50;;;;;;5074513;28;20024;-68
2022/12/15 09:01:08;;;;;;;69.00;40.38;;;-0.40;97.70;;;;;;5075504;28;20036;-68
2022/12/15 09:03:34;;;;;;;72.78;44.03;;;-0.20;98.00;;;;;;5077320;28;20039;-67
2022/12/15 09:06:05;;;;;;;96.82;52.47;;;-0.10;98.00;;;;;;5078487;28;20028;-68
2022/12/15 09:08:32;;;;;;;91.30;50.50;;;0.10;98.00;;;;;;5081779;28;20410;-68
2022/12/15 09:11:02;;;;;;;125.18;63.70;;;-0.10;98.00;;;;;;5078711;28;20021;-67
2022/12/15 09:13:28;;;;;;;96.22;53.40;;;-0.20;98.00;;;;;;5040863;28;20120;-67
2022/12/15 09:15:57;;;;;;;93.20;57.17;;;-0.20;98.00;;;;;;5075040;28;20099;-67
2022/12/15 09:18:25;;;;;;;87.32;50.28;;;-0.10;98.00;;;;;;5079438;28;20415;-67
2022/12/15 09:20:51;;;;;;;77.93;45.15;;;0.00;98.00;;;;;;5078426;28;20027;-67
2022/12/15 09:23:17;;;;;;;83.35;47.72;;;0.00;98.00;;;;;;5078480;28;20090;-67
2022/12/15 09:25:43;;;;;;;85.00;46.95;;;-0.10;98.00;;;;;;5077438;28;20020;-67
2022/12/15 09:28:08;;;;;;;79.38;46.33;;;-0.20;98.00;;;;;;5077872;28;20024;-67
2022/12/15 09:30:34;;;;;;;78.68;45.95;;;-0.30;98.00;;;;;;5078018;28;20023;-67
2022/12/15 09:33:02;;;;;;;81.40;45.08;;;-0.50;98.00;;;;;;5077981;28;20024;-67
2022/12/15 09:35:28;;;;;;;86.75;48.53;;;-0.60;98.00;;;;;;5076712;28;20033;-67
2022/12/15 09:37:55;;;;;;;70.55;42.70;;;-0.60;97.90;;;;;;5079047;28;20025;-67
2022/12/15 09:40:25;;;;;;;73.88;43.45;;;-0.60;96.90;;;;;;5077983;28;20413;-67
2022/12/15 09:42:55;;;;;;;80.28;45.58;;;-0.40;97.30;;;;;;5078759;28;20048;-67
2022/12/15 09:45:25;;;;;;;87.88;50.05;;;-0.40;97.90;;;;;;5076526;28;20025;-67
2022/12/15 09:48:08;;;;;;;72.93;44.65;;;-0.40;97.90;;;;;;5078917;28;20085;-67
2022/12/15 09:50:37;;;;;;;76.80;44.25;;;-0.30;96.20;;;;;;5078119;28;20298;-66
2022/12/15 09:53:08;;;;;;;87.45;49.17;;;0.00;96.60;;;;;;5078596;28;20021;-67
2022/12/15 09:55:34;;;;;;;81.47;47.70;;;0.20;98.00;;;;;;5076717;28;20016;-67
2022/12/15 09:58:39;;;;;;;77.88;46.00;;;0.20;98.00;;;;;;5074966;28;20100;-67
2022/12/15 10:01:29;;;;;;;73.03;43.00;;;0.10;98.00;;;;;;4990118;28;20125;-68
2022/12/15 10:04:06;;;;;;;84.72;47.72;;;0.20;98.00;;;;;;5060283;28;20129;-67
2022/12/15 10:06:41;;;;;;;79.75;43.40;;;0.20;98.00;;;;;;5076798;28;20029;-67
2022/12/15 10:09:19;;;;;;;93.60;49.97;;;0.20;98.00;;;;;;5076772;28;20359;-67
2022/12/15 10:12:11;;;;;;;78.32;45.70;;;0.20;98.00;;;;;;5077497;28;20055;-66
2022/12/15 10:14:50;;;;;;;73.68;44.50;;;0.10;97.30;;;;;;5058278;28;20344;-67
2022/12/15 10:17:24;;;;;;;79.28;46.92;;;0.20;96.90;;;;;;5077137;28;20039;-67
2022/12/15 10:20:11;;;;;;;70.05;42.83;;;0.40;98.00;;;;;;5069711;28;20035;-67
2022/12/15 10:22:37;;;;;;;71.88;43.60;;;0.50;98.00;;;;;;5077471;28;20028;-67
2022/12/15 10:25:19;;;;;;;79.57;45.45;;;0.40;98.00;;;;;;5077443;28;20078;-67
2022/12/15 10:28:16;;;;;;;92.20;51.28;;;0.20;98.00;;;;;;5075481;28;20020;-67
2022/12/15 10:30:58;;;;;;;108.32;57.58;;;0.00;98.00;;;;;;5059021;28;20017;-66
2022/12/15 10:33:27;;;;;;;87.97;51.03;;;-0.20;97.60;;;;;;5078130;28;20020;-67
2022/12/15 10:35:54;;;;;;;109.75;56.90;;;-0.40;96.70;;;;;;5059442;28;20514;-67
2022/12/15 10:38:31;;;;;;;100.32;53.05;;;-0.40;96.30;;;;;;5075682;28;20094;-67
2022/12/15 10:41:01;;;;;;;115.53;58.85;;;-0.40;95.50;;;;;;5076921;28;20025;-68
2022/12/15 10:43:36;;;;;;;110.82;54.17;;;-0.30;95.30;;;;;;5076393;28;20337;-67
2022/12/15 10:46:21;;;;;;;97.88;52.95;;;-0.30;95.60;;;;;;5076813;28;20535;-66
2022/12/15 10:49:01;;;;;;;128.75;61.63;;;0.00;95.70;;;;;;5076692;28;20439;-67
2022/12/15 10:51:35;;;;;;;136.20;64.57;;;0.00;97.80;;;;;;5076785;28;20309;-67
2022/12/15 10:54:10;;;;;;;;;;;-0.20;97.40;;;;;;5078046;28;20413;-66
2022/12/15 10:56:57;;;;;;;114.57;58.88;;;-0.30;95.60;;;;;;5076661;28;19999;-68
2022/12/15 10:59:33;;;;;;;113.45;58.97;;;-0.30;94.20;;;;;;5074936;28;20032;-66
2022/12/15 11:02:20;;;;;;;91.28;51.65;;;-0.20;95.20;;;;;;5076751;28;20081;-67
2022/12/15 11:05:15;;;;;;;130.73;63.00;;;-0.10;94.90;;;;;;5077477;28;20036;-67
2022/12/15 11:08:16;;;;;;;107.22;56.25;;;-0.20;96.90;;;;;;5076169;28;20035;-67
2022/12/15 11:13:40;;;;;;;103.13;54.47;;;-0.20;94.40;;;;;;5076356;28;20070;-67
2022/12/15 11:16:17;;;;;;;100.90;54.03;;;-0.20;94.60;;;;;;5058580;28;20029;-67
2022/12/15 11:18:45;;;;;;;120.05;57.63;;;-0.10;94.80;;;;;;5058857;28;20078;-67
2022/12/15 11:21:31;;;;;;;107.18;56.78;;;-0.10;96.20;;;;;;5076131;28;20020;-67
2022/12/15 11:24:26;;;;;;;106.22;54.53;;;-0.20;95.30;;;;;;5058621;28;20093;-67
2022/12/15 11:27:14;;;;;;;92.68;50.50;;;-0.10;94.70;;;;;;5039717;28;20041;-67
2022/12/15 11:30:02;;;;;;;99.47;53.22;;;0.20;96.10;;;;;;5074730;28;20032;-68
2022/12/15 11:32:33;;;;;;;102.47;54.40;;;0.30;98.00;;;;;;5044491;28;20025;-67
2022/12/15 11:34:59;;;;;;;121.68;61.00;;;0.30;97.50;;;;;;5064602;28;20025;-66
2022/12/15 11:37:44;;;;;;;126.40;62.15;;;0.30;98.00;;;;;;5062802;28;20029;-67
2022/12/15 11:40:41;;;;;;;119.47;59.83;;;0.20;96.80;;;;;;5070343;28;20032;-67
2022/12/15 11:43:25;;;;;;;131.57;63.90;;;0.20;96.30;;;;;;5075250;28;20044;-67
2022/12/15 11:46:05;;;;;;;134.45;64.47;;;0.20;96.30;;;;;;5069594;28;20033;-68
2022/12/15 11:48:44;;;;;;;107.50;56.33;;;0.30;98.00;;;;;;5040686;28;20321;-67
2022/12/15 11:51:28;;;;;;;118.72;60.97;;;0.20;97.00;;;;;;5063177;28;20027;-67
2022/12/15 11:54:34;;;;;;;116.18;60.78;;;0.20;97.70;;;;;;5074429;28;20035;-66
2022/12/15 11:57:41;;;;;;;136.27;66.63;;;0.20;96.50;;;;;;5075059;28;20085;-66
2022/12/15 12:00:20;;;;;;;104.53;54.53;;;0.50;97.50;;;;;;5074209;28;20032;-66
2022/12/15 12:03:24;;;;;;;98.53;53.10;;;0.60;97.70;;;;;;5076217;28;20041;-68
2022/12/15 12:06:06;;;;;;;106.45;54.08;;;0.70;98.00;;;;;;5072985;28;20029;-68
2022/12/15 12:08:48;;;;;;;105.53;53.58;;;0.80;98.00;;;;;;5056841;28;20032;-67
2022/12/15 12:11:15;;;;;;;88.28;50.65;;;1.10;98.00;;;;;;5056689;28;20074;-67
2022/12/15 12:14:14;;;;;;;87.45;48.28;;;1.30;98.00;;;;;;5074036;28;20040;-67
2022/12/15 12:17:01;;;;;;;92.00;49.22;;;1.40;98.00;;;;;;5076137;28;20095;-67
2022/12/15 12:19:35;;;;;;;76.43;42.83;;;1.20;98.00;;;;;;5041314;28;20368;-67
2022/12/15 12:22:15;;;;;;;102.28;52.10;;;1.30;98.00;;;;;;5068253;28;20047;-68
2022/12/15 12:25:00;;;;;;;99.63;52.45;;;1.10;98.00;;;;;;5074741;28;20094;-68
2022/12/15 12:27:38;;;;;;;108.00;53.40;;;0.70;98.00;;;;;;5073856;28;20034;-67
2022/12/15 12:30:16;;;;;;;111.15;57.92;;;0.60;98.00;;;;;;5074667;28;20016;-68
2022/12/15 12:32:47;;;;;;;96.00;51.75;;;0.40;97.90;;;;;;5055358;28;20021;-68
2022/12/15 12:35:34;;;;;;;104.55;54.55;;;0.30;96.40;;;;;;5062618;28;20029;-67
2022/12/15 12:38:13;;;;;;;114.53;57.22;;;0.30;95.70;;;;;;5074827;28;20033;-68
2022/12/15 12:41:08;;;;;;;101.13;50.60;;;0.30;96.20;;;;;;5074816;28;20031;-67
2022/12/15 12:43:45;;;;;;;119.40;58.85;;;0.20;95.80;;;;;;5054393;28;20101;-68
2022/12/15 12:46:25;;;;;;;107.30;54.65;;;0.10;95.60;;;;;;5059423;28;20028;-68
2022/12/15 12:49:26;;;;;;;106.00;57.67;;;0.00;94.30;;;;;;5075961;28;20366;-68
2022/12/15 12:51:53;;;;;;;91.45;47.80;;;0.00;94.50;;;;;;5074484;28;20020;-67
2022/12/15 12:54:59;;;;;;;86.60;46.10;;;0.00;94.40;;;;;;5073860;28;20021;-68
2022/12/15 12:57:33;;;;;;;106.35;53.42;;;0.00;95.20;;;;;;5004780;28;20065;-67
2022/12/15 13:00:21;;;;;;;77.97;43.30;;;0.00;94.40;;;;;;5054443;28;20025;-67
2022/12/15 13:03:10;;;;;;;93.50;49.30;;;0.10;93.70;;;;;;5074716;28;20304;-68
2022/12/15 13:05:38;;;;;;;115.85;55.88;;;0.20;94.60;;;;;;5073331;28;20035;-67
2022/12/15 13:08:09;;;;;;;108.32;53.97;;;0.20;94.80;;;;;;5074848;28;20359;-67
2022/12/15 13:10:46;;;;;;;94.68;50.42;;;0.20;94.10;;;;;;5074417;28;20032;-67
2022/12/15 13:13:36;;;;;;;91.93;51.20;;;0.10;93.70;;;;;;5056621;28;20127;-67
2022/12/15 13:16:08;;;;;;;101.07;52.20;;;0.20;94.00;;;;;;5073715;28;20049;-67
2022/12/15 13:18:55;;;;;;;102.05;52.30;;;0.30;95.10;;;;;;5073421;28;20029;-67
2022/12/15 13:21:56;;;;;;;114.55;58.05;;;0.30;96.40;;;;;;5073060;28;20028;-68
2022/12/15 13:24:34;;;;;;;97.50;51.50;;;0.10;94.90;;;;;;4974714;28;20173;-68
2022/12/15 13:27:15;;;;;;;112.07;53.80;;;0.10;94.50;;;;;;5061940;28;20162;-68
2022/12/15 13:30:05;;;;;;;104.55;52.80;;;0.10;94.20;;;;;;5074293;28;20097;-68
2022/12/15 13:32:45;;;;;;;105.05;51.53;;;0.10;93.70;;;;;;5069896;28;20028;-68
2022/12/15 13:35:11;;;;;;;95.22;51.08;;;0.00;93.80;;;;;;5074582;28;20116;-68
2022/12/15 13:37:52;;;;;;;97.90;51.17;;;0.10;94.40;;;;;;5074427;28;20107;-68
2022/12/15 13:40:34;;;;;;;119.65;58.03;;;0.10;95.20;;;;;;5075386;28;20416;-68
2022/12/15 13:43:30;;;;;;;108.28;55.03;;;0.00;94.40;;;;;;5072894;28;20467;-67
2022/12/15 13:46:01;;;;;;;104.25;54.88;;;-0.10;92.90;;;;;;5070817;28;20009;-69
2022/12/15 13:48:43;;;;;;;106.68;56.10;;;-0.10;92.10;;;;;;5074965;28;20035;-68
2022/12/15 13:51:24;;;;;;;99.57;52.50;;;0.00;91.50;;;;;;5074639;28;20090;-70
2022/12/15 13:53:57;;;;;;;89.72;49.05;;;0.00;92.10;;;;;;5078769;28;20486;-68
2022/12/15 13:56:27;;;;;;;119.78;57.70;;;0.00;92.10;;;;;;5074112;28;20048;-68
2022/12/15 13:59:05;;;;;;;136.20;64.25;;;0.00;92.30;;;;;;5076698;28;20033;-67
2022/12/15 14:01:34;;;;;;;104.60;54.13;;;0.00;92.10;;;;;;5077111;28;20033;-68
2022/12/15 14:04:15;;;;;;;99.80;50.75;;;0.00;92.00;;;;;;5078615;28;20055;-68
2022/12/15 14:07:01;;;;;;;95.38;50.80;;;0.00;91.80;;;;;;5070344;28;20029;-68
2022/12/15 14:09:37;;;;;;;88.60;46.75;;;0.00;91.10;;;;;;5077115;28;20031;-68
2022/12/15 14:12:10;;;;;;;85.93;45.42;;;0.00;90.70;;;;;;5059978;28;20327;-67
2022/12/15 14:14:44;;;;;;;83.65;42.55;;;0.00;90.20;;;;;;5074597;28;20033;-67
2022/12/15 14:17:14;;;;;;;69.53;38.80;;;0.00;92.00;;;;;;5058576;28;20036;-67
2022/12/15 14:19:48;;;;;;;45.75;27.95;;;0.00;91.50;;;;;;5075185;28;20111;-68
2022/12/15 14:22:29;;;;;;;73.57;39.33;;;0.00;90.90;;;;;;5058921;28;20037;-68
2022/12/15 14:25:00;;;;;;;56.92;32.47;;;0.00;91.50;;;;;;5077068;28;20126;-68
2022/12/15 14:27:29;;;;;;;40.10;23.52;;;0.10;91.70;;;;;;5058245;28;20460;-67
2022/12/15 14:30:19;;;;;;;38.00;23.27;;;0.10;92.00;;;;;;5073923;28;20051;-67
2022/12/15 14:32:46;;;;;;;39.45;22.98;;;0.20;92.60;;;;;;5056774;28;20029;-67
2022/12/15 14:35:16;;;;;;;36.60;21.50;;;0.20;93.00;;;;;;5078028;28;20308;-67
2022/12/15 14:37:44;;;;;;;40.83;23.23;;;0.20;93.60;;;;;;5058798;28;20032;-68
2022/12/15 14:40:17;;;;;;;80.97;41.78;;;0.20;93.60;;;;;;5078059;28;20097;-67
2022/12/15 14:42:44;;;;;;;48.88;26.33;;;0.20;93.80;;;;;;5074611;28;20052;-68
2022/12/15 14:45:19;;;;;;;58.42;31.13;;;0.10;93.90;;;;;;5076332;28;20317;-67
2022/12/15 14:48:01;;;;;;;39.05;22.90;;;0.10;93.10;;;;;;5076582;28;20090;-67
2022/12/15 14:50:27;;;;;;;43.20;24.95;;;0.10;93.80;;;;;;5077835;28;20125;-67
2022/12/15 14:53:00;;;;;;;48.53;25.75;;;0.10;93.40;;;;;;5076369;28;20032;-67
2022/12/15 14:55:37;;;;;;;40.17;24.15;;;0.10;94.10;;;;;;5076164;28;20385;-67
2022/12/15 14:58:33;;;;;;;42.92;24.08;;;0.10;93.30;;;;;;5076351;28;20020;-67
2022/12/15 15:00:59;;;;;;;38.92;22.48;;;0.00;93.20;;;;;;5075551;28;20039;-67
2022/12/15 15:03:38;;;;;;;39.40;24.25;;;0.10;92.60;;;;;;5077441;28;20026;-67
2022/12/15 15:06:13;;;;;;;44.25;24.23;;;0.00;93.30;;;;;;5075432;28;20312;-67
2022/12/15 15:08:49;;;;;;;49.40;25.83;;;0.00;93.10;;;;;;5077410;28;20360;-67
2022/12/15 15:11:38;;;;;;;43.53;24.42;;;0.00;93.40;;;;;;5067144;28;20043;-68
2022/12/15 15:14:15;;;;;;;40.20;23.52;;;0.00;93.70;;;;;;5073880;28;20024;-67
2022/12/15 15:16:42;;;;;;;43.60;24.35;;;0.00;94.30;;;;;;5058674;28;20036;-68
2022/12/15 15:19:20;;;;;;;48.05;26.08;;;-0.10;93.90;;;;;;5073870;28;20048;-68
2022/12/15 15:21:46;;;;;;;53.70;27.45;;;-0.10;92.80;;;;;;5074539;28;20125;-67
2022/12/15 15:24:12;;;;;;;46.47;25.55;;;-0.20;92.20;;;;;;5056352;28;20036;-67